createdAt,value
2023-05-11T00:02:05.925Z,1.90
2023-05-11T00:04:50.416Z,1.30
2023-05-11T00:07:16.768Z,0.80
2023-05-11T00:09:43.003Z,0.93
2023-05-11T00:12:09.312Z,0.80
2023-05-11T00:14:35.713Z,1.80
2023-05-11T00:17:01.931Z,0.50
2023-05-11T00:19:28.268Z,1.03
2023-05-11T00:21:54.657Z,1.73
2023-05-11T00:24:20.965Z,0.53
2023-05-11T00:26:47.509Z,0.60
2023-05-11T00:29:13.810Z,2.33
2023-05-11T00:31:40.344Z,0.67
2023-05-11T00:34:06.937Z,0.60
2023-05-11T00:36:33.999Z,1.03
2023-05-11T00:39:00.541Z,1.53
2023-05-11T00:41:26.868Z,0.70
2023-05-11T00:43:53.176Z,0.70
2023-05-11T00:46:19.639Z,0.67
2023-05-11T00:48:46.145Z,0.80
2023-05-11T00:51:13.031Z,0.80
2023-05-11T00:53:39.292Z,0.70
2023-05-11T00:56:06.095Z,3.40
2023-05-11T00:58:32.482Z,0.73
2023-05-11T01:00:58.896Z,2.13
2023-05-11T01:03:25.437Z,1.73
2023-05-11T01:06:05.307Z,0.90
2023-05-11T01:08:48.137Z,1.93
2023-05-11T01:11:17.658Z,1.50
2023-05-11T01:13:48.486Z,1.20
2023-05-11T01:16:19.131Z,1.00
2023-05-11T01:19:00.429Z,1.03
2023-05-11T01:21:30.109Z,1.47
2023-05-11T01:24:08.896Z,1.10
2023-05-11T01:26:59.459Z,1.27
2023-05-11T01:29:44.766Z,1.00
2023-05-11T01:32:19.828Z,1.70
2023-05-11T01:34:47.116Z,1.53
2023-05-11T01:37:16.228Z,1.00
2023-05-11T01:39:46.045Z,1.37
2023-05-11T01:42:12.994Z,0.97
2023-05-11T01:44:39.910Z,1.10
2023-05-11T01:47:06.831Z,1.00
2023-05-11T01:49:35.293Z,2.40
2023-05-11T01:52:02.671Z,1.73
2023-05-11T01:54:30.183Z,1.00
2023-05-11T01:56:57.112Z,0.90
2023-05-11T01:59:24.852Z,3.13
2023-05-11T02:01:51.326Z,0.70
2023-05-11T02:04:18.877Z,1.10
2023-05-11T02:06:46.953Z,1.50
2023-05-11T02:09:14.591Z,1.20
2023-05-11T02:11:42.731Z,1.60
2023-05-11T02:14:09.578Z,1.00
2023-05-11T02:16:35.878Z,1.10
2023-05-11T02:19:02.705Z,1.37
2023-05-11T02:21:29.403Z,1.33
2023-05-11T02:23:56.067Z,1.00
2023-05-11T02:26:22.536Z,1.00
2023-05-11T02:28:48.847Z,1.47
2023-05-11T02:31:20.989Z,1.20
2023-05-11T02:33:51.597Z,2.40
2023-05-11T02:36:20.069Z,1.10
2023-05-11T02:38:46.812Z,1.40
2023-05-11T02:41:16.046Z,1.67
2023-05-11T02:43:44.474Z,1.27
2023-05-11T02:46:14.276Z,3.77
2023-05-11T02:48:43.238Z,1.37
2023-05-11T02:51:11.010Z,2.43
2023-05-11T02:53:37.922Z,1.23
2023-05-11T02:56:04.452Z,2.27
2023-05-11T02:58:31.388Z,1.47
2023-05-11T03:00:58.572Z,1.67
2023-05-11T03:03:25.158Z,1.10
2023-05-11T03:05:51.531Z,1.37
2023-05-11T03:08:18.037Z,1.30
2023-05-11T03:10:44.353Z,2.40
2023-05-11T03:13:10.776Z,1.30
2023-05-11T03:15:37.692Z,1.80
2023-05-11T03:18:05.670Z,2.37
2023-05-11T03:20:33.902Z,1.17
2023-05-11T03:23:00.534Z,1.00
2023-05-11T03:25:28.974Z,2.00
2023-05-11T03:27:55.592Z,1.00
2023-05-11T03:30:22.636Z,2.13
2023-05-11T03:32:49.387Z,1.00
2023-05-11T03:35:16.185Z,1.00
2023-05-11T03:37:43.044Z,1.73
2023-05-11T03:40:10.308Z,2.53
2023-05-11T03:42:37.804Z,1.03
2023-05-11T03:45:05.942Z,1.20
2023-05-11T03:47:33.337Z,3.93
2023-05-11T03:49:59.951Z,1.20
2023-05-11T03:52:26.533Z,1.07
2023-05-11T03:54:52.862Z,2.00
2023-05-11T03:57:19.218Z,1.57
2023-05-11T03:59:45.570Z,0.90
2023-05-11T04:02:12.312Z,1.83
2023-05-11T04:04:38.701Z,2.30
2023-05-11T04:07:05.612Z,1.70
2023-05-11T04:09:31.854Z,2.40
2023-05-11T04:11:58.160Z,3.33
2023-05-11T04:14:24.473Z,5.50
2023-05-11T04:16:50.773Z,1.50
2023-05-11T04:19:17.149Z,1.60
2023-05-11T04:21:43.547Z,1.47
2023-05-11T04:24:09.791Z,3.33
2023-05-11T04:26:36.097Z,1.97
2023-05-11T04:29:02.426Z,2.67
2023-05-11T04:31:30.293Z,1.57
2023-05-11T04:33:56.909Z,1.60
2023-05-11T04:36:23.371Z,2.07
2023-05-11T04:38:49.730Z,2.00
2023-05-11T04:41:16.056Z,3.03
2023-05-11T04:43:42.327Z,2.17
2023-05-11T04:46:08.631Z,1.90
2023-05-11T04:48:34.913Z,54.07
2023-05-11T04:51:03.857Z,14.43
2023-05-11T04:53:30.544Z,9.20
2023-05-11T04:55:57.270Z,3.93
2023-05-11T04:58:23.589Z,5.37
2023-05-11T05:00:50.043Z,3.17
2023-05-11T05:03:16.388Z,4.60
2023-05-11T05:05:42.896Z,3.30
2023-05-11T05:08:09.253Z,3.13
2023-05-11T05:10:35.493Z,3.90
2023-05-11T05:13:01.750Z,4.07
2023-05-11T05:15:28.077Z,4.40
2023-05-11T05:17:54.455Z,5.43
2023-05-11T05:20:20.777Z,5.53
2023-05-11T05:22:47.087Z,5.77
2023-05-11T05:25:13.456Z,5.37
2023-05-11T05:27:39.695Z,6.87
2023-05-11T05:30:06.618Z,7.30
2023-05-11T05:32:32.961Z,6.33
2023-05-11T05:34:59.411Z,7.20
2023-05-11T05:37:25.695Z,6.40
2023-05-11T05:39:51.996Z,5.73
2023-05-11T05:42:18.306Z,12.10
2023-05-11T05:44:44.562Z,61.67
2023-05-11T05:47:10.911Z,26.37
2023-05-11T05:49:37.235Z,7.33
2023-05-11T05:52:03.567Z,6.70
2023-05-11T05:54:29.856Z,5.97
2023-05-11T05:56:56.157Z,8.83
2023-05-11T05:59:24.209Z,6.47
2023-05-11T06:01:50.946Z,7.70
2023-05-11T06:04:17.426Z,8.40
2023-05-11T06:06:44.102Z,8.07
2023-05-11T06:09:10.361Z,9.53
2023-05-11T06:11:36.676Z,114.73
2023-05-11T06:14:02.916Z,64.00
2023-05-11T06:16:29.267Z,8.60
2023-05-11T06:18:56.115Z,9.60
2023-05-11T06:21:22.498Z,9.27
2023-05-11T06:23:48.936Z,8.07
2023-05-11T06:26:15.501Z,8.23
2023-05-11T06:28:41.761Z,10.47
2023-05-11T06:31:08.050Z,28.70
2023-05-11T06:33:34.369Z,70.70
2023-05-11T06:36:05.080Z,14.37
2023-05-11T06:38:32.068Z,11.03
2023-05-11T06:40:58.351Z,9.83
2023-05-11T06:43:24.780Z,11.07
2023-05-11T06:45:51.113Z,9.57
2023-05-11T06:48:17.431Z,10.40
2023-05-11T06:50:43.705Z,8.90
2023-05-11T06:53:10.657Z,11.10
2023-05-11T06:55:37.872Z,10.53
2023-05-11T06:58:04.297Z,11.77
2023-05-11T07:00:30.615Z,15.07
2023-05-11T07:02:56.899Z,17.13
2023-05-11T07:05:23.719Z,11.87
2023-05-11T07:07:50.050Z,13.17
2023-05-11T07:10:16.787Z,14.73
2023-05-11T07:12:43.492Z,11.90
2023-05-11T07:15:09.971Z,13.20
2023-05-11T07:17:36.265Z,14.50
2023-05-11T07:20:02.559Z,13.10
2023-05-11T07:22:28.862Z,14.23
2023-05-11T07:24:55.401Z,11.77
2023-05-11T07:27:21.695Z,16.67
2023-05-11T07:29:48.018Z,14.47
2023-05-11T07:32:14.292Z,14.47
2023-05-11T07:34:41.199Z,16.97
2023-05-11T07:37:08.340Z,16.57
2023-05-11T07:39:35.013Z,15.63
2023-05-11T07:42:01.387Z,15.20
2023-05-11T07:44:27.664Z,16.83
2023-05-11T07:46:54.928Z,16.20
2023-05-11T07:49:28.274Z,14.50
2023-05-11T07:52:06.089Z,16.07
2023-05-11T07:54:32.513Z,17.17
2023-05-11T07:56:58.863Z,17.00
2023-05-11T07:59:25.158Z,14.37
2023-05-11T08:01:51.551Z,32.73
2023-05-11T08:04:17.978Z,15.90
2023-05-11T08:06:44.731Z,15.60
2023-05-11T08:09:11.196Z,17.00
2023-05-11T08:11:37.494Z,15.40
2023-05-11T08:14:12.289Z,15.43
2023-05-11T08:16:38.666Z,17.77
2023-05-11T08:19:05.562Z,15.93
2023-05-11T08:21:32.871Z,16.77
2023-05-11T08:23:59.188Z,16.00
2023-05-11T08:26:25.975Z,15.50
2023-05-11T08:28:52.772Z,14.90
2023-05-11T08:31:19.109Z,11.97
2023-05-11T08:33:45.585Z,12.20
2023-05-11T08:36:13.532Z,13.10
2023-05-11T08:38:40.222Z,12.03
2023-05-11T08:41:07.660Z,12.83
2023-05-11T08:43:38.664Z,12.20
2023-05-11T08:46:07.710Z,12.97
2023-05-11T08:48:34.340Z,24.83
2023-05-11T08:51:01.150Z,19.33
2023-05-11T08:53:28.192Z,14.03
2023-05-11T08:55:54.980Z,11.63
2023-05-11T08:58:22.378Z,12.77
2023-05-11T09:00:49.091Z,12.30
2023-05-11T09:03:19.562Z,11.00
2023-05-11T09:05:46.968Z,9.50
2023-05-11T09:08:14.280Z,10.10
2023-05-11T09:10:40.607Z,12.00
2023-05-11T09:13:06.901Z,10.93
2023-05-11T09:15:37.007Z,13.67
2023-05-11T09:18:04.720Z,8.47
2023-05-11T09:20:32.106Z,8.23
2023-05-11T09:22:58.568Z,10.67
2023-05-11T09:25:25.515Z,18.03
2023-05-11T09:27:52.264Z,11.57
2023-05-11T09:30:23.148Z,14.47
2023-05-11T09:32:54.365Z,13.00
2023-05-11T09:35:21.748Z,23.20
2023-05-11T09:37:59.008Z,22.27
2023-05-11T09:40:27.646Z,24.47
2023-05-11T09:43:00.155Z,26.97
2023-05-11T09:45:39.938Z,23.03
2023-05-11T09:48:07.402Z,23.67
2023-05-11T09:50:37.245Z,25.53
2023-05-11T09:53:03.588Z,23.67
2023-05-11T09:55:29.942Z,26.40
2023-05-11T09:57:58.110Z,26.33
2023-05-11T10:00:27.463Z,22.83
2023-05-11T10:03:04.414Z,23.43
2023-05-11T10:05:31.884Z,22.13
2023-05-11T10:08:05.083Z,20.90
2023-05-11T10:10:32.631Z,22.90
2023-05-11T10:12:59.869Z,21.27
2023-05-11T10:15:28.278Z,19.17
2023-05-11T10:17:55.593Z,21.47
2023-05-11T10:20:22.292Z,23.40
2023-05-11T10:22:50.929Z,21.60
2023-05-11T10:25:17.273Z,21.97
2023-05-11T10:27:43.875Z,20.60
2023-05-11T10:30:10.406Z,19.63
2023-05-11T10:32:39.975Z,20.43
2023-05-11T10:35:07.141Z,15.67
2023-05-11T10:37:33.705Z,19.07
2023-05-11T10:40:00.198Z,20.03
2023-05-11T10:42:37.194Z,18.33
2023-05-11T10:45:22.477Z,18.50
2023-05-11T10:48:07.744Z,18.40
2023-05-11T10:50:53.542Z,17.50
2023-05-11T10:53:34.837Z,18.17
2023-05-11T10:56:06.137Z,18.20
2023-05-11T10:58:50.994Z,30.10
2023-05-11T11:01:30.820Z,20.20
2023-05-11T11:03:58.286Z,18.73
2023-05-11T11:06:24.668Z,15.60
2023-05-11T11:08:57.916Z,18.17
2023-05-11T11:11:31.538Z,17.93
2023-05-11T11:13:58.734Z,17.87
2023-05-11T11:16:26.098Z,13.87
2023-05-11T11:18:52.542Z,16.07
2023-05-11T11:21:37.924Z,17.93
2023-05-11T11:24:04.405Z,15.90
2023-05-11T11:26:47.282Z,15.43
2023-05-11T11:29:13.942Z,17.60
2023-05-11T11:31:40.588Z,12.20
2023-05-11T11:34:25.806Z,13.23
2023-05-11T11:36:55.119Z,17.07
2023-05-11T11:39:21.865Z,17.37
2023-05-11T11:42:04.485Z,14.77
2023-05-11T11:44:31.354Z,16.47
2023-05-11T11:47:26.367Z,12.83
2023-05-11T11:49:53.750Z,14.07
2023-05-11T11:52:29.331Z,15.57
2023-05-11T11:54:57.056Z,14.97
2023-05-11T11:57:29.461Z,11.37
2023-05-11T11:59:55.991Z,14.87
2023-05-11T12:02:23.308Z,13.27
2023-05-11T12:04:51.670Z,10.77
2023-05-11T12:07:20.004Z,13.07
2023-05-11T12:09:46.352Z,12.53
2023-05-11T12:12:12.967Z,14.20
2023-05-11T12:14:40.629Z,15.50
2023-05-11T12:17:15.754Z,12.27
2023-05-11T12:19:43.464Z,16.17
2023-05-11T12:22:10.739Z,13.97
2023-05-11T12:24:38.604Z,17.57
2023-05-11T12:27:05.072Z,17.67
2023-05-11T12:29:31.956Z,12.30
2023-05-11T12:31:58.597Z,13.17
2023-05-11T12:34:24.949Z,15.60
2023-05-11T12:36:52.166Z,15.00
2023-05-11T12:39:19.298Z,12.83
2023-05-11T12:41:46.853Z,17.97
2023-05-11T12:44:14.673Z,18.50
2023-05-11T12:46:41.124Z,17.43
2023-05-11T12:49:07.793Z,15.97
2023-05-11T12:51:44.731Z,14.40
2023-05-11T12:54:11.504Z,14.23
2023-05-11T12:56:48.232Z,12.83
2023-05-11T12:59:26.687Z,13.03
2023-05-11T13:01:53.050Z,11.67
2023-05-11T13:04:27.914Z,13.17
2023-05-11T13:06:54.185Z,13.83
2023-05-11T13:09:27.226Z,12.37
2023-05-11T13:12:12.218Z,10.27
2023-05-11T13:14:39.049Z,11.60
2023-05-11T13:17:06.189Z,8.30
2023-05-11T13:19:33.760Z,11.90
2023-05-11T13:22:00.196Z,8.27
2023-05-11T13:24:26.800Z,9.57
2023-05-11T13:26:53.589Z,11.93
2023-05-11T13:29:19.939Z,14.53
2023-05-11T13:31:47.097Z,14.13
2023-05-11T13:34:13.694Z,14.90
2023-05-11T13:36:40.185Z,9.70
2023-05-11T13:39:06.887Z,11.07
2023-05-11T13:41:33.726Z,13.03
2023-05-11T13:44:00.289Z,12.23
2023-05-11T13:46:26.679Z,10.47
2023-05-11T13:48:54.652Z,17.30
2023-05-11T13:51:21.470Z,15.30
2023-05-11T13:53:47.987Z,16.80
2023-05-11T13:56:14.374Z,15.77
2023-05-11T13:58:40.652Z,20.83
2023-05-11T14:01:08.580Z,17.60
2023-05-11T14:03:35.207Z,17.93
2023-05-11T14:06:02.387Z,15.97
2023-05-11T14:08:28.665Z,13.23
2023-05-11T14:10:54.912Z,11.93
2023-05-11T14:13:21.811Z,11.77
2023-05-11T14:15:48.052Z,11.53
2023-05-11T14:18:14.418Z,12.07
2023-05-11T14:20:42.234Z,15.47
2023-05-11T14:23:08.744Z,10.50
2023-05-11T14:25:36.146Z,10.67
2023-05-11T14:28:02.587Z,13.97
2023-05-11T14:30:28.883Z,12.90
2023-05-11T14:32:55.760Z,15.93
2023-05-11T14:35:22.119Z,40.67
2023-05-11T14:37:48.952Z,13.47
2023-05-11T14:40:15.223Z,15.27
2023-05-11T14:42:41.799Z,15.60
2023-05-11T14:45:08.440Z,11.57
2023-05-11T14:47:34.725Z,11.27
2023-05-11T14:50:00.979Z,14.07
2023-05-11T14:52:27.291Z,23.13
2023-05-11T14:54:53.669Z,16.37
2023-05-11T14:57:20.101Z,14.50
2023-05-11T14:59:58.285Z,12.67
2023-05-11T15:02:26.191Z,13.00
2023-05-11T15:04:52.612Z,12.57
2023-05-11T15:07:18.911Z,11.57
2023-05-11T15:09:45.341Z,12.30
2023-05-11T15:12:11.588Z,10.93
2023-05-11T15:14:37.845Z,12.93
2023-05-11T15:17:04.211Z,11.97
2023-05-11T15:19:30.632Z,12.73
2023-05-11T15:21:56.959Z,11.83
2023-05-11T15:24:23.246Z,11.77
2023-05-11T15:26:49.549Z,13.33
2023-05-11T15:29:16.552Z,9.57
2023-05-11T15:31:42.886Z,11.40
2023-05-11T15:34:09.222Z,11.63
2023-05-11T15:36:35.710Z,10.13
2023-05-11T15:39:02.606Z,10.20
2023-05-11T15:41:29.186Z,13.27
2023-05-11T15:43:55.602Z,15.07
2023-05-11T15:46:22.467Z,13.77
2023-05-11T15:48:48.946Z,15.00
2023-05-11T15:51:15.351Z,11.10
2023-05-11T15:53:41.597Z,12.97
2023-05-11T15:56:08.937Z,11.57
2023-05-11T15:58:35.235Z,12.10
2023-05-11T16:01:01.926Z,12.33
2023-05-11T16:03:28.694Z,13.63
2023-05-11T16:05:55.602Z,13.07
2023-05-11T16:08:21.979Z,12.33
2023-05-11T16:10:48.349Z,15.40
2023-05-11T16:13:14.781Z,12.70
2023-05-11T16:15:41.261Z,15.30
2023-05-11T16:18:07.731Z,12.23
2023-05-11T16:20:34.150Z,15.30
2023-05-11T16:23:00.692Z,15.83
2023-05-11T16:25:26.995Z,15.60
2023-05-11T16:27:53.386Z,14.83
2023-05-11T16:30:24.947Z,13.20
2023-05-11T16:32:52.595Z,14.50
2023-05-11T16:35:19.266Z,14.00
2023-05-11T16:37:47.670Z,16.93
2023-05-11T16:40:14.315Z,16.77
2023-05-11T16:42:40.766Z,15.33
2023-05-11T16:45:07.349Z,13.70
2023-05-11T16:47:33.881Z,15.87
2023-05-11T16:50:00.571Z,15.30
2023-05-11T16:52:26.916Z,15.07
2023-05-11T16:54:53.219Z,23.27
2023-05-11T16:57:19.602Z,19.27
2023-05-11T16:59:45.935Z,19.40
2023-05-11T17:02:12.367Z,17.27
2023-05-11T17:04:38.756Z,16.37
2023-05-11T17:07:05.043Z,18.67
2023-05-11T17:09:31.372Z,15.40
2023-05-11T17:11:57.654Z,17.97
2023-05-11T17:14:23.936Z,21.90
2023-05-11T17:16:50.276Z,25.47
2023-05-11T17:19:16.750Z,25.30
2023-05-11T17:21:43.101Z,28.37
2023-05-11T17:24:09.448Z,28.60
2023-05-11T17:26:46.992Z,26.73
2023-05-11T17:29:14.955Z,26.10
2023-05-11T17:31:41.920Z,27.57
2023-05-11T17:34:09.159Z,28.10
2023-05-11T17:36:36.153Z,25.57
2023-05-11T17:39:02.546Z,25.37
2023-05-11T17:41:28.928Z,23.97
2023-05-11T17:43:55.302Z,22.07
2023-05-11T17:46:21.842Z,20.87
2023-05-11T17:48:48.406Z,28.93
2023-05-11T17:51:14.742Z,30.53
2023-05-11T17:53:41.917Z,25.00
2023-05-11T17:56:09.848Z,25.83
2023-05-11T17:58:36.238Z,26.83
2023-05-11T18:01:09.230Z,26.50
2023-05-11T18:03:35.870Z,24.50
2023-05-11T18:06:02.442Z,25.73
2023-05-11T18:08:28.859Z,23.37
2023-05-11T18:10:55.717Z,24.80
2023-05-11T18:13:22.800Z,25.07
2023-05-11T18:15:49.473Z,29.37
2023-05-11T18:18:16.044Z,28.47
2023-05-11T18:20:45.513Z,26.37
2023-05-11T18:23:12.813Z,29.77
2023-05-11T18:25:39.790Z,29.80
2023-05-11T18:28:06.207Z,30.80
2023-05-11T18:30:33.224Z,29.50
2023-05-11T18:32:59.660Z,31.40
2023-05-11T18:35:26.095Z,33.13
2023-05-11T18:37:52.424Z,31.80
2023-05-11T18:40:19.180Z,32.97
2023-05-11T18:42:47.066Z,35.23
2023-05-11T18:45:13.883Z,36.23
2023-05-11T18:47:44.253Z,32.50
2023-05-11T18:50:10.868Z,34.20
2023-05-11T18:52:37.231Z,35.87
2023-05-11T18:55:04.092Z,35.33
2023-05-11T18:57:32.498Z,59.80
2023-05-11T18:59:58.850Z,57.37
2023-05-11T19:02:25.314Z,38.97
2023-05-11T19:04:51.665Z,34.87
2023-05-11T19:07:20.093Z,38.10
2023-05-11T19:09:46.712Z,33.67
2023-05-11T19:12:13.510Z,34.07
2023-05-11T19:14:39.816Z,37.27
2023-05-11T19:17:06.374Z,37.57
2023-05-11T19:19:32.687Z,33.70
2023-05-11T19:21:59.270Z,38.13
2023-05-11T19:24:25.885Z,40.30
2023-05-11T19:27:05.920Z,41.53
2023-05-11T19:29:33.433Z,40.40
2023-05-11T19:31:59.830Z,42.57
2023-05-11T19:34:26.204Z,39.37
2023-05-11T19:36:52.500Z,40.83
2023-05-11T19:39:18.766Z,39.50
2023-05-11T19:41:45.389Z,35.93
2023-05-11T19:44:11.679Z,38.27
2023-05-11T19:46:45.401Z,38.73
2023-05-11T19:49:12.693Z,66.43
2023-05-11T19:51:39.188Z,36.60
2023-05-11T19:54:05.517Z,38.17
2023-05-11T19:56:32.764Z,37.27
2023-05-11T19:58:59.141Z,35.33
2023-05-11T20:01:25.451Z,35.43
2023-05-11T20:03:51.970Z,31.53
2023-05-11T20:06:18.303Z,32.93
2023-05-11T20:08:47.090Z,36.57
2023-05-11T20:11:14.791Z,34.27
2023-05-11T20:13:41.352Z,33.93
2023-05-11T20:16:08.384Z,33.20
2023-05-11T20:18:34.902Z,31.73
2023-05-11T20:21:01.180Z,30.10
2023-05-11T20:23:27.627Z,32.43
2023-05-11T20:25:54.168Z,33.43
2023-05-11T20:28:26.997Z,32.43
2023-05-11T20:30:54.348Z,37.13
2023-05-11T20:35:52.470Z,36.17
2023-05-11T20:38:19.919Z,35.83
2023-05-11T20:40:46.263Z,33.47
2023-05-11T20:43:14.557Z,35.37
2023-05-11T20:45:42.036Z,35.67
2023-05-11T20:48:08.574Z,36.87
2023-05-11T20:50:34.982Z,35.13
2023-05-11T20:53:01.293Z,35.80
2023-05-11T20:55:27.604Z,38.63
2023-05-11T20:57:53.962Z,36.40
2023-05-11T21:00:20.591Z,41.30
2023-05-11T21:02:47.172Z,39.97
2023-05-11T21:05:13.522Z,39.30
2023-05-11T21:07:40.128Z,37.00
2023-05-11T21:10:06.963Z,36.20
2023-05-11T21:12:33.348Z,43.33
2023-05-11T21:14:59.681Z,38.30
2023-05-11T21:17:25.952Z,42.27
2023-05-11T21:19:52.263Z,41.53
2023-05-11T21:22:18.574Z,39.47
2023-05-11T21:24:44.890Z,39.03
2023-05-11T21:27:11.151Z,39.53
2023-05-11T21:29:37.415Z,42.47
2023-05-11T21:32:04.074Z,42.20
2023-05-11T21:34:30.376Z,41.30
2023-05-11T21:36:56.726Z,42.20
2023-05-11T21:39:24.672Z,42.30
2023-05-11T21:41:51.069Z,42.77
2023-05-11T21:44:17.362Z,42.27
2023-05-11T21:46:43.716Z,42.00
2023-05-11T21:49:10.164Z,38.07
2023-05-11T21:51:36.725Z,40.03
2023-05-11T21:54:03.146Z,42.47
2023-05-11T21:56:29.450Z,42.37
2023-05-11T21:58:55.704Z,43.73
2023-05-11T22:01:22.465Z,42.10
2023-05-11T22:03:48.901Z,42.27
2023-05-11T22:06:15.808Z,41.80
2023-05-11T22:08:42.065Z,40.90
2023-05-11T22:11:08.448Z,39.23
2023-05-11T22:13:34.780Z,38.80
2023-05-11T22:16:01.283Z,38.07
2023-05-11T22:18:27.668Z,38.27
2023-05-11T22:20:54.066Z,39.90
2023-05-11T22:23:20.986Z,37.37
2023-05-11T22:25:47.240Z,37.93
2023-05-11T22:28:13.631Z,36.20
2023-05-11T22:30:39.988Z,36.50
2023-05-11T22:33:06.322Z,36.90
2023-05-11T22:35:32.662Z,36.80
2023-05-11T22:38:01.487Z,34.93
2023-05-11T22:40:27.814Z,35.17
2023-05-11T22:42:54.066Z,33.20
2023-05-11T22:45:20.428Z,31.63
2023-05-11T22:47:46.917Z,27.70
2023-05-11T22:50:13.253Z,29.77
2023-05-11T22:52:39.588Z,30.53
2023-05-11T22:55:06.300Z,28.60
2023-05-11T22:57:32.715Z,28.90
2023-05-11T22:59:59.157Z,28.40
2023-05-11T23:02:25.764Z,24.40
2023-05-11T23:04:52.902Z,25.13
2023-05-11T23:07:19.468Z,26.87
2023-05-11T23:09:45.795Z,26.80
2023-05-11T23:12:12.745Z,27.43
2023-05-11T23:14:38.999Z,28.83
2023-05-11T23:17:05.487Z,30.60
2023-05-11T23:19:31.998Z,30.07
2023-05-11T23:21:58.558Z,28.93
2023-05-11T23:24:24.892Z,25.67
2023-05-11T23:26:51.286Z,30.47
2023-05-11T23:29:17.649Z,29.17
2023-05-11T23:31:43.954Z,29.40
2023-05-11T23:34:10.292Z,30.50
2023-05-11T23:36:36.668Z,30.73
2023-05-11T23:39:02.933Z,29.33
2023-05-11T23:41:29.186Z,32.97
2023-05-11T23:43:55.429Z,30.93
2023-05-11T23:46:21.713Z,30.30
2023-05-11T23:48:48.322Z,30.20
2023-05-11T23:51:15.271Z,31.47
2023-05-11T23:53:41.596Z,32.33
2023-05-11T23:56:07.844Z,30.13
2023-05-11T23:58:34.126Z,30.13
